Flight Track Log - Related Links

Times and Time Zones

All times are in EDT time to prevent confusion due to time zone crossing. See the PDT4314 flight status page for this flight to view local times or setup timezone preferences in your user account.

Time Position Orientation Groundspeed Altitude Reporting Facility
EDT Latitude Longitude Course Direction KTS MPH feet Rate Location/Type
Thu 05:57:00 PM 42.0596 -75.9309 180° South  Level Estimated
Thu 05:58:00 PM 42.0086 -75.9313 180° South  Level FlightAware Approximate
Thu 05:59:00 PM 41.9576 -75.9317 180° South  Level FlightAware Approximate
Thu 06:00:00 PM 41.9065 -75.9321 180° South  Level FlightAware Approximate
Thu 06:01:00 PM 41.8571 -75.9148 154° Southeast  Level Estimated
Thu 06:02:00 PM 41.8062 -75.9100 176° South  Level FlightAware Approximate
Thu 06:03:00 PM 41.7569 -75.8924 160° South  Level Estimated
Thu 06:04:00 PM 41.7075 -75.8749 159° South  Level Estimated
Thu 06:05:00 PM 41.6583 -75.8570 165° South  Level FlightAware Approximate
Thu 06:06:00 PM 41.6090 -75.8392 165° South  Level FlightAware Approximate
Thu 06:07:00 PM 41.5596 -75.8218 153° Southeast  Level Estimated
Thu 06:08:00 PM 41.5103 -75.8044 161° South  Level Estimated
Thu 06:09:00 PM 41.4625 -75.7805 160° South  Level FlightAware Approximate
Thu 06:10:00 PM 41.4146 -75.7567 160° South  Level FlightAware Approximate
Thu 06:11:00 PM 41.3668 -75.7330 160° South  Level FlightAware Approximate
Thu 06:12:00 PM 41.3173 -75.7163 162° South  Level Estimated
Thu 06:13:00 PM 41.2692 -75.6935 160° South  Level FlightAware Approximate
Thu 06:14:00 PM 41.2211 -75.6708 160° South  Level FlightAware Approximate
Thu 06:15:00 PM 41.1730 -75.6481 160° South  Level FlightAware Approximate
Thu 06:16:00 PM 41.1249 -75.6254 160° South  Level FlightAware Approximate
Thu 06:17:00 PM 41.0753 -75.6099 159° South  Level Estimated
Thu 06:18:00 PM 41.0256 -75.5944 163° South  Level Estimated
Thu 06:19:00 PM 40.9775 -75.5718 160° South  Level FlightAware Approximate
Thu 06:20:00 PM 40.9293 -75.5492 161° South  Level FlightAware Approximate
Thu 06:20:01 PM 40.7000 -75.4500 181° South 249 287 5,000  Level Philadelphia TRACON
Thu 06:20:55 PM 40.6500 -75.4667 194° South 247 284 5,000  Level Philadelphia TRACON
Thu 06:21:00 PM 40.8812 -75.5267 161° South  Level FlightAware Approximate
Thu 06:21:55 PM 40.5833 -75.4333 159° South 246 283 5,000  Level Philadelphia TRACON
Thu 06:22:00 PM 40.8331 -75.5042 161° South  Level FlightAware Approximate
Thu 06:22:55 PM 40.5167 -75.4167 169° South 246 283 5,000  Level Philadelphia TRACON
Thu 06:23:00 PM 40.7831 -75.4903 190° South  Level Estimated
Thu 06:23:55 PM 40.4500 -75.3833 159° South 242 278 5,000  Level Philadelphia TRACON
Thu 06:24:00 PM 40.7321 -75.4921 181° South  Level FlightAware Approximate
Thu 06:24:55 PM 40.3833 -75.3667 169° South 235 270 5,000  Level Philadelphia TRACON
Thu 06:25:00 PM 40.6811 -75.4938 181° South  Level FlightAware Approximate
Thu 06:25:50 PM 40.3333 -75.3500 166° South 226 260 5,000  Level Philadelphia TRACON
Thu 06:26:50 PM 40.2667 -75.3167 159° South 232 267 4,600 -706 Descending Philadelphia TRACON
Thu 06:27:49 PM 40.2167 -75.2667 143° Southeast 261 300 3,600 -800 Descending Philadelphia TRACON
Thu 06:28:50 PM 40.1667 -75.2167 143° Southeast 238 274 3,000 -298 Descending Philadelphia TRACON
Thu 06:29:50 PM 40.1000 -75.1667 150° Southeast 229 264 3,000  Level Philadelphia TRACON
Thu 06:30:50 PM 40.0500 -75.1167 143° Southeast 219 252 3,000  Level Philadelphia TRACON
Thu 06:31:50 PM 40.0000 -75.0833 153° Southeast 207 238 3,000 -500 Level Philadelphia TRACON
Thu 06:32:50 PM 39.9500 -75.0667 166° South 190 219 2,000 -476 Descending Philadelphia TRACON
Thu 06:33:56 PM 39.9167 -75.0833 201° Southwest 146 168 2,000 -200 Level Philadelphia TRACON
Thu 06:34:50 PM 39.9000 -75.1333 247° West 134 154 1,600 -579 Descending Philadelphia TRACON
Thu 06:35:50 PM 39.9000 -75.1667 270° West 97 112 900 -650 Descending Philadelphia TRACON
Thu 06:36:50 PM 39.8833 -75.2000 237° Southwest 106 122 300 -600 Descending Philadelphia TRACON

Login

Don't have an account? Register now (free) for customized features, flight alerts, and more!